Time;durP1;ratioP1;P1;durP2;ratioP2;P2;SDS_P1;SDS_P2;PMS_P1;PMS_P2;Temp;Humidity;BMP_temperature;BMP_pressure;BME280_temperature;BME280_humidity;BME280_pressure;Samples;Min_cycle;Max_cycle;Signal;HPM_P1;HPM_P2
2022/08/13 00:01:24;;;;;;;13.57;10.00;;;;;;;23.96;100.00;100143.59;1696559;84;21481;-56
2022/08/13 00:03:52;;;;;;;15.85;10.40;;;;;;;23.91;100.00;100143.62;1693457;83;21722;-56
2022/08/13 00:06:37;;;;;;;15.20;10.73;;;;;;;23.88;100.00;100148.16;1688672;84;21132;-57
2022/08/13 00:08:49;;;;;;;12.20;9.37;;;;;;;23.83;100.00;100141.55;1684880;84;21011;-56
2022/08/13 00:12:56;;;;;;;12.20;10.10;;;;;;;23.81;100.00;100133.56;1688430;84;21888;-56
2022/08/13 00:13:46;;;;;;;11.70;9.57;;;;;;;23.76;100.00;100126.40;1684874;84;21046;-57
2022/08/13 00:16:13;;;;;;;12.37;9.70;;;;;;;23.75;100.00;100132.77;1688492;84;22191;-56
2022/08/13 00:18:41;;;;;;;11.37;9.17;;;;;;;23.73;100.00;100133.05;1688386;84;20931;-64
2022/08/13 00:21:09;;;;;;;12.73;10.07;;;;;;;23.71;100.00;100129.06;1688910;84;21177;-56
2022/08/13 00:23:36;;;;;;;12.93;9.83;;;;;;;23.71;100.00;100127.73;1689054;84;21011;-55
2022/08/13 00:26:03;;;;;;;10.87;9.70;;;;;;;23.72;100.00;100128.02;1688039;84;21078;-57
2022/08/13 00:28:32;;;;;;;11.87;9.50;;;;;;;23.72;100.00;100129.34;1688879;84;22188;-59
2022/08/13 00:31:00;;;;;;;14.23;9.50;;;;;;;23.72;100.00;100126.69;1688813;84;21449;-56
2022/08/13 00:33:28;;;;;;;11.03;9.40;;;;;;;23.73;100.00;100122.41;1688836;84;21063;-55
2022/08/13 00:35:55;;;;;;;12.70;8.87;;;;;;;23.75;100.00;100119.46;1688047;84;20979;-56
2022/08/13 00:38:29;;;;;;;11.07;9.13;;;;;;;23.75;100.00;100122.95;1688856;84;21096;-55
2022/08/13 00:40:58;;;;;;;12.47;9.80;;;;;;;23.78;100.00;100122.91;1689183;84;21251;-55
2022/08/13 00:43:26;;;;;;;10.37;9.23;;;;;;;23.80;100.00;100120.79;1689111;84;20979;-63
2022/08/13 00:45:54;;;;;;;11.83;9.20;;;;;;;23.82;100.00;100125.29;1688514;84;21067;-55
2022/08/13 00:51:08;;;;;;;9.70;8.70;;;;;;;23.81;100.00;100122.37;1689205;84;21035;-55
2022/08/13 00:53:37;;;;;;;11.93;9.07;;;;;;;23.81;100.00;100112.27;1688579;84;21253;-60
2022/08/13 00:56:05;;;;;;;10.20;9.13;;;;;;;23.80;100.00;100107.48;1688738;84;21645;-56
2022/08/13 00:58:34;;;;;;;11.33;10.13;;;;;;;23.83;100.00;100097.63;1689085;84;21511;-55
2022/08/13 01:01:01;;;;;;;9.60;8.60;;;;;;;23.88;100.00;100098.91;1688884;84;21485;-55
2022/08/13 01:03:31;;;;;;;11.37;9.23;;;;;;;23.92;100.00;100093.30;1689221;83;20972;-62
2022/08/13 01:05:59;;;;;;;12.20;9.10;;;;;;;23.97;100.00;100089.27;1695459;84;21229;-58
2022/08/13 01:08:31;;;;;;;12.93;9.40;;;;;;;24.04;100.00;100094.28;1696261;84;21471;-55
2022/08/13 01:11:02;;;;;;;10.03;8.45;;;;;;;24.08;100.00;100093.99;1696764;83;21012;-55
2022/08/13 01:13:33;;;;;;;10.87;9.27;;;;;;;24.09;100.00;100086.25;1696621;84;21130;-57
2022/08/13 01:16:04;;;;;;;10.55;9.40;;;;;;;24.12;100.00;100088.91;1696779;84;21821;-56
2022/08/13 01:18:31;;;;;;;11.47;9.20;;;;;;;24.11;100.00;100089.98;1696931;84;21233;-55
2022/08/13 01:21:08;;;;;;;10.20;9.10;;;;;;;24.06;100.00;100086.83;1696158;84;20956;-55
2022/08/13 01:23:36;;;;;;;11.50;9.40;;;;;;;24.03;100.00;100090.83;1695804;84;20939;-60
2022/08/13 01:26:03;;;;;;;12.17;8.77;;;;;;;23.99;100.00;100087.67;1696791;84;21484;-55
2022/08/13 01:28:31;;;;;;;12.73;9.87;;;;;;;23.93;100.00;100086.89;1696853;84;21019;-55
2022/08/13 01:31:05;;;;;;;14.27;10.10;;;;;;;23.91;100.00;100076.28;1696758;84;22393;-54
2022/08/13 01:33:35;;;;;;;12.90;10.07;;;;;;;23.91;100.00;100079.73;1695880;84;21053;-56
2022/08/13 01:36:06;;;;;;;10.90;9.23;;;;;;;23.90;100.00;100083.45;1696443;84;21013;-55
2022/08/13 01:38:35;;;;;;;11.13;9.93;;;;;;;23.89;100.00;100079.73;1696485;84;21639;-55
2022/08/13 01:41:04;;;;;;;14.07;10.40;;;;;;;23.89;100.00;100089.05;1696240;84;20999;-63
2022/08/13 01:43:34;;;;;;;12.55;10.23;;;;;;;23.90;100.00;100082.11;1696004;84;21603;-56
2022/08/13 01:46:02;;;;;;;10.53;9.17;;;;;;;23.89;100.00;100075.20;1644785;84;20974;-55
2022/08/13 01:51:22;;;;;;;12.70;9.67;;;;;;;23.86;100.00;100070.42;1695925;84;21463;-57
2022/08/13 01:53:58;;;;;;;11.40;10.13;;;;;;;23.84;100.00;100072.59;1696306;84;20970;-55
2022/08/13 01:56:24;;;;;;;11.37;10.27;;;;;;;23.86;100.00;100070.97;1695851;84;21164;-55
2022/08/13 01:58:53;;;;;;;11.57;10.13;;;;;;;23.88;100.00;100061.64;1695507;84;21062;-62
2022/08/13 02:01:25;;;;;;;11.93;10.37;;;;;;;23.95;100.00;100065.34;1696002;84;21509;-62
2022/08/13 02:03:49;;;;;;;11.97;10.77;;;;;;;24.00;100.00;100058.64;1695151;83;21027;-55
2022/08/13 02:06:30;;;;;;;12.00;9.83;;;;;;;23.98;100.00;100054.93;1696426;84;21093;-55
2022/08/13 02:09:03;;;;;;;13.60;10.65;;;;;;;23.98;100.00;100062.92;1695640;84;21138;-54
2022/08/13 02:11:35;;;;;;;13.70;10.23;;;;;;;23.95;100.00;100044.83;1695103;84;20995;-57
2022/08/13 02:14:04;;;;;;;15.20;11.50;;;;;;;23.94;100.00;100056.56;1696118;84;21479;-56
2022/08/13 02:16:33;;;;;;;13.50;10.80;;;;;;;23.94;100.00;100055.23;1695727;83;21074;-60
2022/08/13 02:19:03;;;;;;;12.70;10.55;;;;;;;23.89;100.00;100055.23;1696235;84;21034;-55
2022/08/13 02:21:36;;;;;;;11.83;10.43;;;;;;;23.88;100.00;100036.89;1695750;84;21858;-55
2022/08/13 02:24:08;;;;;;;11.33;10.23;;;;;;;23.86;100.00;100039.02;1695564;83;21300;-58
2022/08/13 02:26:34;;;;;;;11.90;10.70;;;;;;;23.82;100.00;100049.42;1695626;84;21037;-59
2022/08/13 02:29:04;;;;;;;11.87;9.83;;;;;;;23.83;100.00;100054.21;1695992;84;21782;-56
2022/08/13 02:31:34;;;;;;;13.27;10.17;;;;;;;23.81;100.00;100051.84;1696378;84;21136;-55
2022/08/13 02:34:01;;;;;;;11.17;10.07;;;;;;;23.74;100.00;100055.34;1696030;84;21887;-54
2022/08/13 02:36:30;;;;;;;13.03;10.97;;;;;;;23.69;100.00;100046.85;1695002;84;20955;-54
2022/08/13 02:39:04;;;;;;;13.53;10.33;;;;;;;23.67;100.00;100050.84;1696002;84;20916;-55
2022/08/13 02:41:38;;;;;;;13.50;10.63;;;;;;;23.74;100.00;100060.12;1695328;84;22427;-54
2022/08/13 02:44:12;;;;;;;13.70;9.53;;;;;;;23.69;100.00;100070.02;1695410;84;21078;-57
2022/08/13 02:46:42;;;;;;;13.10;10.43;;;;;;;23.61;100.00;100087.31;1696160;84;21906;-55
2022/08/13 02:49:10;;;;;;;13.77;10.23;;;;;;;23.52;100.00;100076.45;1695497;84;20975;-56
2022/08/13 02:51:42;;;;;;;13.10;10.87;;;;;;;23.44;100.00;100074.87;1696351;84;20963;-63
2022/08/13 02:54:10;;;;;;;12.40;10.70;;;;;;;23.39;100.00;100077.03;1696462;84;22411;-55
2022/08/13 02:56:37;;;;;;;14.60;11.20;;;;;;;23.32;100.00;100071.20;1696084;84;20963;-62
2022/08/13 02:59:10;;;;;;;11.67;10.07;;;;;;;23.28;100.00;100070.16;1695640;84;21763;-56
2022/08/13 03:01:39;;;;;;;11.40;10.10;;;;;;;23.24;100.00;100054.48;1695322;84;21516;-62
2022/08/13 03:04:07;;;;;;;12.43;10.60;;;;;;;23.20;100.00;100057.42;1695273;83;21373;-55
2022/08/13 03:06:34;;;;;;;12.77;10.73;;;;;;;23.15;100.00;100066.22;1688896;84;21075;-55
2022/08/13 03:09:02;;;;;;;12.10;9.87;;;;;;;23.18;100.00;100069.64;1688878;84;21058;-55
2022/08/13 03:11:29;;;;;;;12.70;10.77;;;;;;;23.25;100.00;100078.67;1688670;84;21161;-62
2022/08/13 03:14:02;;;;;;;11.63;10.00;;;;;;;23.29;100.00;100067.22;1688752;84;21020;-55
2022/08/13 03:16:29;;;;;;;11.47;10.27;;;;;;;23.34;100.00;100063.77;1688291;84;21003;-58
2022/08/13 03:18:58;;;;;;;11.83;9.20;;;;;;;23.41;100.00;100062.94;1688347;84;21023;-55
2022/08/13 03:21:28;;;;;;;12.27;10.10;;;;;;;23.48;100.00;100067.40;1688808;84;21855;-55
2022/08/13 03:23:55;;;;;;;12.07;10.00;;;;;;;23.61;100.00;100070.56;1688565;84;21090;-55
2022/08/13 03:26:24;;;;;;;11.00;9.83;;;;;;;23.75;100.00;100062.23;1688436;84;21050;-54
2022/08/13 03:28:51;;;;;;;10.77;9.67;;;;;;;23.87;100.00;100081.89;1688774;84;21102;-62
2022/08/13 03:31:19;;;;;;;10.77;9.50;;;;;;;24.00;100.00;100085.27;1688375;84;20971;-55
2022/08/13 03:33:46;;;;;;;12.23;9.87;;;;;;;24.09;100.00;100090.79;1688467;83;21086;-55
2022/08/13 03:36:15;;;;;;;11.10;9.53;;;;;;;24.17;100.00;100088.36;1689518;84;22024;-55
2022/08/13 03:38:42;;;;;;;11.73;10.03;;;;;;;24.22;100.00;100087.52;1688606;84;21544;-55
2022/08/13 03:41:12;;;;;;;11.40;9.53;;;;;;;24.23;100.00;100093.09;1688485;84;21466;-57
2022/08/13 03:43:42;;;;;;;11.38;10.18;;;;;;;24.26;100.00;100089.88;1688404;84;21375;-63
2022/08/13 03:46:13;;;;;;;11.23;9.93;;;;;;;24.30;100.00;100100.23;1689083;84;21173;-55
2022/08/13 03:48:40;;;;;;;11.12;8.60;;;;;;;24.36;100.00;100096.98;1689328;84;21473;-55
2022/08/13 03:51:07;;;;;;;10.47;9.47;;;;;;;24.44;100.00;100100.44;1689331;84;20972;-63
2022/08/13 03:53:35;;;;;;;12.53;9.63;;;;;;;24.53;100.00;100107.28;1688161;84;21525;-56
2022/08/13 03:56:04;;;;;;;11.43;9.70;;;;;;;24.65;100.00;100099.72;1689159;84;21409;-55
2022/08/13 03:58:31;;;;;;;10.33;9.33;;;;;;;24.76;100.00;100105.21;1689199;84;21062;-55
2022/08/13 04:01:01;;;;;;;10.73;9.47;;;;;;;24.87;100.00;100101.92;1689740;84;21494;-55
2022/08/13 04:03:35;;;;;;;9.97;8.63;;;;;;;24.97;100.00;100109.28;1688378;84;21063;-63
2022/08/13 04:06:02;;;;;;;11.13;8.87;;;;;;;25.08;100.00;100109.16;1689054;83;21468;-55
2022/08/13 04:08:37;;;;;;;9.90;8.83;;;;;;;25.18;100.00;100107.21;1689143;84;20972;-55
2022/08/13 04:11:08;;;;;;;10.33;8.17;;;;;;;25.30;100.00;100108.14;1688582;84;21080;-63
2022/08/13 04:13:38;;;;;;;9.75;8.55;;;;;;;25.42;100.00;100103.22;1689512;84;21651;-55
2022/08/13 04:16:15;;;;;;;10.23;8.77;;;;;;;25.54;100.00;100102.02;1688911;84;20967;-56
2022/08/13 04:18:43;;;;;;;9.67;8.63;;;;;;;25.64;100.00;100093.86;1688071;84;21091;-58
2022/08/13 04:21:12;;;;;;;11.50;8.63;;;;;;;25.71;100.00;100088.42;1688375;84;21018;-55
2022/08/13 04:23:43;;;;;;;9.43;8.53;;;;;;;25.78;100.00;100097.44;1689184;84;21877;-55
2022/08/13 04:26:11;;;;;;;10.03;9.07;;;;;;;25.83;100.00;100103.25;1689353;84;21232;-54
2022/08/13 04:28:38;;;;;;;10.57;8.80;;;;;;;25.89;100.00;100107.45;1688407;84;20932;-56
2022/08/13 04:31:06;;;;;;;10.07;8.97;;;;;;;25.92;100.00;100108.22;1688261;84;21101;-57
2022/08/13 04:33:33;;;;;;;9.17;8.13;;;;;;;25.96;100.00;100107.89;1689218;84;21122;-55
2022/08/13 04:36:00;;;;;;;10.27;8.70;;;;;;;26.01;100.00;100111.81;1688472;84;21004;-56
2022/08/13 04:38:28;;;;;;;9.57;8.30;;;;;;;26.08;100.00;100106.90;1688292;84;21217;-55
2022/08/13 04:40:55;;;;;;;10.93;9.20;;;;;;;26.16;100.00;100110.80;1688730;84;21295;-57
2022/08/13 04:43:22;;;;;;;11.10;8.20;;;;;;;26.21;100.00;100106.70;1688717;84;21544;-55
2022/08/13 04:45:49;;;;;;;10.07;9.07;;;;;;;26.26;100.00;100110.65;1688923;84;21031;-55
2022/08/13 04:48:17;;;;;;;10.00;8.90;;;;;;;26.31;100.00;100114.56;1688737;84;20985;-61
2022/08/13 04:50:46;;;;;;;10.23;8.93;;;;;;;26.37;100.00;100125.44;1688625;84;21380;-62
2022/08/13 04:53:34;;;;;;;12.80;8.57;;;;;;;26.43;100.00;100121.58;1688707;84;21085;-55
2022/08/13 04:56:03;;;;;;;9.20;8.23;;;;;;;26.50;100.00;100124.47;1688283;84;21933;-57
2022/08/13 04:58:35;;;;;;;9.00;8.13;;;;;;;26.56;98.56;100120.64;1688579;84;21335;-55
2022/08/13 05:01:03;;;;;;;9.97;8.97;;;;;;;26.61;99.74;100120.55;1688780;84;21454;-55
2022/08/13 05:03:31;;;;;;;8.90;7.95;;;;;;;26.63;99.62;100125.86;1688866;84;21277;-55
2022/08/13 05:05:59;;;;;;;8.40;7.55;;;;;;;26.68;100.00;100127.64;1694510;83;21018;-56
2022/08/13 05:08:26;;;;;;;13.50;8.43;;;;;;;26.73;100.00;100124.87;1695809;84;21069;-59
2022/08/13 05:10:53;;;;;;;9.03;8.15;;;;;;;26.77;100.00;100120.52;1695321;84;20947;-56
2022/08/13 05:13:31;;;;;;;9.25;8.03;;;;;;;26.82;100.00;100123.64;1696115;84;20978;-55
2022/08/13 05:16:01;;;;;;;10.23;9.00;;;;;;;26.88;100.00;100126.48;1695910;84;21131;-55
2022/08/13 05:18:32;;;;;;;9.58;8.60;;;;;;;26.91;100.00;100124.02;1695881;84;21137;-62
2022/08/13 05:21:03;;;;;;;9.35;8.15;;;;;;;26.95;100.00;100120.77;1696318;84;21458;-55
2022/08/13 05:23:34;;;;;;;9.03;7.97;;;;;;;27.00;100.00;100128.13;1695697;84;21101;-63
2022/08/13 05:26:01;;;;;;;10.70;8.43;;;;;;;27.05;100.00;100120.03;1696175;84;21573;-55
2022/08/13 05:28:30;;;;;;;8.80;7.90;;;;;;;27.15;100.00;100120.41;1695532;84;22337;-56
2022/08/13 05:30:58;;;;;;;12.00;8.55;;;;;;;27.28;100.00;100123.64;1696142;84;21069;-56
2022/08/13 05:33:27;;;;;;;10.32;9.23;;;;;;;27.39;97.07;100122.91;1696004;84;21006;-58
2022/08/13 05:36:00;;;;;;;10.98;8.63;;;;;;;27.41;98.77;100121.48;1696450;84;21119;-57
2022/08/13 05:38:28;;;;;;;9.15;8.35;;;;;;;27.54;99.94;100121.25;1695886;84;20995;-56
2022/08/13 05:41:01;;;;;;;9.88;8.88;;;;;;;27.67;98.18;100127.67;1696435;84;21149;-57
2022/08/13 05:43:30;;;;;;;9.35;8.35;;;;;;;27.82;97.64;100127.92;1695739;84;21041;-57
2022/08/13 05:46:02;;;;;;;9.80;8.80;;;;;;;27.99;94.60;100135.31;1696605;84;21624;-60
2022/08/13 05:48:41;;;;;;;9.60;8.68;;;;;;;28.11;92.82;100131.02;1696138;84;20979;-56
2022/08/13 05:51:10;;;;;;;9.78;8.78;;;;;;;28.33;89.07;100128.87;1695552;84;20880;-62
2022/08/13 05:53:37;;;;;;;10.95;9.05;;;;;;;28.77;84.94;100123.83;1696026;84;22196;-56
2022/08/13 05:56:07;;;;;;;11.65;9.88;;;;;;;29.12;78.46;100124.01;1695513;84;21520;-58
2022/08/13 05:58:34;;;;;;;9.60;8.58;;;;;;;29.49;74.92;100133.45;1695720;84;21069;-56
2022/08/13 06:03:47;;;;;;;12.35;9.73;;;;;;;30.19;65.57;100131.13;1695573;84;21078;-58
2022/08/13 06:06:17;;;;;;;13.50;9.50;;;;;;;30.35;62.13;100135.47;1695758;83;21619;-56
2022/08/13 06:08:44;;;;;;;11.45;8.75;;;;;;;30.43;59.85;100137.34;1696299;84;21500;-57
2022/08/13 06:11:16;;;;;;;9.93;8.95;;;;;;;30.67;59.12;100144.09;1695918;84;21114;-59
2022/08/13 06:13:46;;;;;;;13.75;9.25;;;;;;;31.15;57.10;100134.95;1695783;84;20963;-58
2022/08/13 06:16:13;;;;;;;10.53;9.43;;;;;;;31.76;54.75;100138.66;1696346;84;21009;-57
2022/08/13 06:18:46;;;;;;;10.18;9.03;;;;;;;32.43;52.26;100135.77;1696064;84;21257;-59
2022/08/13 06:21:14;;;;;;;9.75;8.45;;;;;;;33.16;49.91;100128.36;1695913;84;21037;-58
2022/08/13 06:23:44;;;;;;;9.45;8.20;;;;;;;33.75;46.81;100128.98;1695970;84;20895;-63
2022/08/13 06:26:14;;;;;;;9.90;8.60;;;;;;;34.05;45.68;100124.84;1695794;84;21058;-57
2022/08/13 06:28:41;;;;;;;10.15;7.70;;;;;;;34.50;44.76;100126.47;1696029;84;21013;-65
2022/08/13 06:31:25;;;;;;;10.72;8.45;;;;;;;34.89;43.43;100124.52;1695756;84;22425;-57
2022/08/13 06:33:48;;;;;;;10.93;8.57;;;;;;;35.36;42.41;100120.42;1696124;83;21101;-63
2022/08/13 06:36:16;;;;;;;8.90;7.42;;;;;;;35.97;41.00;100115.72;1696118;84;22298;-57
2022/08/13 06:38:50;;;;;;;10.68;8.45;;;;;;;36.22;38.94;100114.87;1695887;84;21590;-64
2022/08/13 06:41:19;;;;;;;11.60;7.80;;;;;;;36.39;38.27;100116.91;1695996;84;21078;-58
2022/08/13 06:43:52;;;;;;;11.03;7.40;;;;;;;36.58;37.91;100110.67;1695660;84;21815;-61
2022/08/13 06:46:24;;;;;;;10.68;7.37;;;;;;;36.71;36.77;100116.92;1696138;84;21133;-64
2022/08/13 06:48:52;;;;;;;12.00;8.38;;;;;;;36.67;36.50;100120.70;1696246;84;21582;-57
2022/08/13 06:51:20;;;;;;;8.88;7.65;;;;;;;36.66;36.11;100115.06;1695774;84;21031;-66
2022/08/13 06:53:47;;;;;;;11.30;7.70;;;;;;;36.71;35.88;100127.78;1695575;84;20900;-57
2022/08/13 06:56:19;;;;;;;12.88;8.18;;;;;;;36.70;36.18;100120.77;1695848;84;21158;-58
2022/08/13 06:58:49;;;;;;;12.88;7.95;;;;;;;36.83;35.56;100120.02;1695927;84;21577;-58
2022/08/13 07:01:22;;;;;;;9.88;7.53;;;;;;;36.89;35.13;100114.47;1695926;84;21026;-64
2022/08/13 07:03:49;;;;;;;10.53;7.75;;;;;;;37.04;35.72;100120.16;1696093;84;21353;-58
2022/08/13 07:06:20;;;;;;;13.70;8.30;;;;;;;37.34;34.82;100137.30;1696316;83;21553;-59
2022/08/13 07:08:47;;;;;;;11.30;7.93;;;;;;;37.51;34.21;100137.38;1696210;84;21748;-58
2022/08/13 07:11:21;;;;;;;12.00;7.47;;;;;;;37.48;31.57;100135.39;1695432;84;20950;-58
2022/08/13 07:13:52;;;;;;;11.93;7.62;;;;;;;37.41;31.71;100136.62;1647040;84;22179;-57
2022/08/13 07:16:22;;;;;;;13.55;7.35;;;;;;;37.39;30.61;100133.47;1695723;84;21564;-61
2022/08/13 07:18:50;;;;;;;13.65;7.37;;;;;;;37.16;31.27;100129.45;1696242;84;21391;-55
2022/08/13 07:21:19;;;;;;;10.75;7.37;;;;;;;36.91;30.31;100129.84;1695508;84;22133;-55
2022/08/13 07:23:47;;;;;;;14.30;6.70;;;;;;;36.37;30.57;100138.19;1696377;84;21076;-55
2022/08/13 07:26:16;;;;;;;11.03;6.95;;;;;;;35.61;31.44;100133.75;1696339;84;20955;-54
2022/08/13 07:28:45;;;;;;;12.63;6.83;;;;;;;35.04;32.25;100138.10;1695845;84;21027;-62
2022/08/13 07:31:12;;;;;;;12.03;6.12;;;;;;;34.89;32.92;100129.36;1695608;84;21581;-54
2022/08/13 07:33:42;;;;;;;11.83;7.15;;;;;;;34.84;33.44;100136.41;1695801;84;21304;-56
2022/08/13 07:36:12;;;;;;;9.73;6.75;;;;;;;34.70;33.84;100137.39;1695676;84;20967;-64
2022/08/13 07:38:41;;;;;;;9.98;5.95;;;;;;;34.49;34.02;100136.27;1696113;84;21592;-58
2022/08/13 07:41:10;;;;;;;10.95;6.60;;;;;;;34.25;34.38;100127.14;1695921;84;21047;-57
2022/08/13 07:43:39;;;;;;;11.80;6.17;;;;;;;34.03;34.96;100142.00;1695962;84;21043;-57
2022/08/13 07:46:10;;;;;;;12.43;7.12;;;;;;;33.72;34.00;100139.92;1695895;84;21120;-61
2022/08/13 07:48:38;;;;;;;10.60;5.53;;;;;;;33.37;33.71;100136.89;1695717;84;22087;-58
2022/08/13 07:51:22;;;;;;;14.73;6.85;;;;;;;33.09;34.17;100138.94;1695348;84;21061;-57
2022/08/13 07:53:52;;;;;;;11.80;6.12;;;;;;;32.89;34.48;100139.23;1695493;84;21427;-63
2022/08/13 07:56:34;;;;;;;10.88;6.47;;;;;;;32.73;34.64;100128.06;1696374;84;21950;-56
2022/08/13 07:58:56;;;;;;;9.70;6.28;;;;;;;32.60;34.67;100129.39;1694406;84;22383;-59
2022/08/13 08:01:27;;;;;;;12.28;5.70;;;;;;;32.57;35.88;100131.41;1695700;83;21007;-56
2022/08/13 08:03:54;;;;;;;12.63;6.60;;;;;;;32.64;34.89;100128.95;1695424;83;21065;-57
2022/08/13 08:06:21;;;;;;;11.33;6.08;;;;;;;32.61;34.47;100125.56;1695743;83;21077;-61
2022/08/13 08:08:48;;;;;;;9.45;5.80;;;;;;;32.63;34.65;100126.03;1695971;84;20995;-57
2022/08/13 08:14:02;;;;;;;8.23;4.67;;;;;;;32.99;32.32;100118.33;1695862;84;21093;-55
2022/08/13 08:16:34;;;;;;;9.58;4.53;;;;;;;33.08;31.10;100123.86;1695710;84;21003;-56
2022/08/13 08:19:01;;;;;;;6.53;3.80;;;;;;;33.16;30.61;100131.06;1696251;84;21054;-56
2022/08/13 08:21:28;;;;;;;9.23;3.45;;;;;;;33.25;30.94;100106.62;1695959;84;21027;-56
2022/08/13 08:23:59;;;;;;;6.28;3.98;;;;;;;33.46;29.19;100121.39;1695788;84;21316;-57
2022/08/13 08:26:29;;;;;;;7.45;3.87;;;;;;;33.61;29.24;100096.93;1694885;84;28272;-59
2022/08/13 08:28:57;;;;;;;;;;;;;;;33.79;28.24;100106.88;1698541;84;21586;-58
2022/08/13 08:31:25;;;;;;;5.05;3.72;;;;;;;33.86;27.89;100103.81;1695471;84;20264;-57
2022/08/13 08:33:55;;;;;;;7.58;3.95;;;;;;;33.87;27.46;100106.77;1696076;84;21077;-56
2022/08/13 08:36:24;;;;;;;6.67;3.55;;;;;;;33.84;26.98;100095.84;1695895;84;21303;-63
2022/08/13 08:44:32;;;;;;;6.10;3.70;;;;;;;34.02;26.97;100099.05;1696055;84;21338;-63
2022/08/13 08:46:57;;;;;;;9.05;4.17;;;;;;;33.97;26.53;100101.98;1696025;83;21075;-57
2022/08/13 08:49:24;;;;;;;5.00;3.67;;;;;;;33.73;27.25;100100.16;1695968;84;21227;-55
2022/08/13 08:51:52;;;;;;;7.00;4.00;;;;;;;33.43;27.88;100100.42;1695803;84;21508;-62
2022/08/13 08:54:22;;;;;;;7.78;4.28;;;;;;;33.22;28.73;100102.46;1696207;84;21372;-55
2022/08/13 08:56:54;;;;;;;6.35;4.33;;;;;;;33.08;29.20;100096.86;1695819;84;21031;-56
2022/08/13 08:59:20;;;;;;;5.97;4.37;;;;;;;32.99;29.80;100095.38;1696053;84;21073;-57
2022/08/13 09:01:47;;;;;;;6.65;4.10;;;;;;;32.99;30.18;100097.52;1695811;84;21269;-62
2022/08/13 09:04:14;;;;;;;7.95;4.42;;;;;;;32.97;29.92;100097.65;1695844;84;21065;-56
2022/08/13 09:06:42;;;;;;;8.85;5.05;;;;;;;32.86;29.20;100094.57;1695013;83;21027;-57
2022/08/13 09:09:09;;;;;;;6.62;4.45;;;;;;;32.72;29.59;100092.19;1689179;84;21431;-55
2022/08/13 09:11:36;;;;;;;8.55;4.67;;;;;;;32.61;29.74;100091.83;1688973;84;21027;-55
2022/08/13 09:14:07;;;;;;;6.42;4.72;;;;;;;32.53;29.47;100096.77;1687909;84;22175;-56
2022/08/13 09:16:38;;;;;;;8.28;5.62;;;;;;;32.44;30.01;100097.44;1688471;84;21110;-61
2022/08/13 09:19:09;;;;;;;8.78;5.12;;;;;;;32.33;29.14;100101.08;1689049;84;21344;-58
2022/08/13 09:21:43;;;;;;;9.30;5.90;;;;;;;32.18;29.41;100113.28;1689081;84;21003;-58
2022/08/13 09:24:15;;;;;;;8.35;5.40;;;;;;;32.04;29.65;100099.28;1688783;84;21521;-62
2022/08/13 09:26:39;;;;;;;10.93;5.70;;;;;;;31.98;29.89;100099.28;1688450;84;21306;-56
2022/08/13 09:29:08;;;;;;;8.53;5.80;;;;;;;31.92;29.28;100101.94;1688847;84;21096;-59
2022/08/13 09:31:36;;;;;;;11.57;6.03;;;;;;;31.87;29.17;100100.23;1689389;84;21003;-56
2022/08/13 09:34:03;;;;;;;11.10;4.70;;;;;;;31.84;28.86;100104.90;1688662;84;21006;-57
2022/08/13 09:36:31;;;;;;;7.55;4.80;;;;;;;31.78;28.83;100104.86;1688601;84;21364;-62
2022/08/13 09:38:58;;;;;;;5.75;4.20;;;;;;;31.72;29.39;100098.10;1688824;84;21240;-57
2022/08/13 09:41:28;;;;;;;6.85;4.70;;;;;;;31.74;29.25;100095.85;1688823;84;20916;-57
2022/08/13 09:43:57;;;;;;;8.45;4.33;;;;;;;31.80;29.66;100103.20;1688936;84;21015;-63
2022/08/13 09:46:23;;;;;;;8.53;4.78;;;;;;;31.90;29.62;100102.84;1688318;84;21024;-57
2022/08/13 09:48:52;;;;;;;8.20;3.70;;;;;;;31.97;29.37;100099.03;1688355;84;21027;-57
2022/08/13 09:51:19;;;;;;;4.80;3.70;;;;;;;31.99;28.52;100095.45;1688954;84;21301;-56
2022/08/13 09:53:47;;;;;;;6.03;4.03;;;;;;;31.97;28.90;100097.67;1688874;84;21003;-62
2022/08/13 09:56:18;;;;;;;7.22;3.80;;;;;;;31.95;28.70;100098.58;1688530;84;21030;-56
2022/08/13 09:58:49;;;;;;;6.92;4.17;;;;;;;31.89;29.07;100092.59;1688692;84;21082;-59
2022/08/13 10:01:16;;;;;;;6.37;4.33;;;;;;;31.86;29.57;100095.16;1688864;84;21554;-57
2022/08/13 10:03:43;;;;;;;5.67;3.65;;;;;;;31.84;29.61;100114.33;1688670;84;21157;-56
2022/08/13 10:06:10;;;;;;;4.87;3.47;;;;;;;31.79;29.38;100100.28;1688047;84;21015;-57
2022/08/13 10:08:38;;;;;;;5.53;3.90;;;;;;;31.70;29.58;100100.33;1688774;83;21148;-64
2022/08/13 10:11:05;;;;;;;4.92;3.80;;;;;;;31.59;29.90;100102.61;1689111;84;21109;-57
2022/08/13 10:13:33;;;;;;;7.35;3.95;;;;;;;31.51;30.27;100096.73;1688900;84;21110;-56
2022/08/13 10:16:00;;;;;;;7.00;4.20;;;;;;;31.45;30.00;100101.54;1689032;84;21315;-58
2022/08/13 10:18:28;;;;;;;5.70;3.60;;;;;;;31.41;30.10;100108.70;1688941;84;22329;-57
2022/08/13 10:20:55;;;;;;;7.65;4.72;;;;;;;31.41;30.63;100087.71;1687893;84;21071;-63
2022/08/13 10:23:22;;;;;;;7.97;4.72;;;;;;;31.41;30.67;100087.71;1688567;84;21445;-57
2022/08/13 10:25:52;;;;;;;5.50;4.40;;;;;;;31.41;30.18;100087.71;1688976;84;21047;-64
2022/08/13 10:28:34;;;;;;;7.62;5.78;;;;;;;31.37;30.44;100088.92;1688560;84;22260;-58
2022/08/13 10:31:03;;;;;;;7.60;5.85;;;;;;;31.35;30.50;100089.00;1687939;84;21047;-58
2022/08/13 10:33:32;;;;;;;9.48;7.12;;;;;;;31.33;30.55;100100.65;1689032;84;21882;-58
2022/08/13 10:35:59;;;;;;;9.85;6.15;;;;;;;31.31;31.02;100092.13;1688534;84;20939;-57
2022/08/13 10:38:26;;;;;;;9.38;6.10;;;;;;;31.36;31.18;100092.70;1688983;84;21149;-56
2022/08/13 10:40:56;;;;;;;7.95;6.80;;;;;;;31.39;30.91;100081.84;1689375;84;21264;-65
2022/08/13 10:43:23;;;;;;;9.18;6.45;;;;;;;31.39;30.84;100089.36;1687634;84;21031;-60
2022/08/13 10:45:56;;;;;;;6.75;5.72;;;;;;;31.36;30.68;100085.97;1688017;84;21066;-57
2022/08/13 10:48:23;;;;;;;7.90;6.05;;;;;;;31.35;30.49;100070.15;1688592;84;21932;-56
2022/08/13 10:50:52;;;;;;;7.30;5.72;;;;;;;31.32;30.60;100089.09;1688830;84;21058;-56
2022/08/13 10:56:08;;;;;;;8.38;4.70;;;;;;;31.43;31.39;100086.25;1688969;84;20963;-57
2022/08/13 10:58:36;;;;;;;7.40;6.37;;;;;;;31.56;31.07;100079.58;1689044;84;21545;-57
2022/08/13 11:01:03;;;;;;;8.15;7.03;;;;;;;31.67;30.96;100073.50;1688036;84;21549;-65
2022/08/13 11:03:31;;;;;;;13.03;6.53;;;;;;;31.77;31.06;100072.86;1688516;84;21074;-57
2022/08/13 11:06:00;;;;;;;8.78;4.80;;;;;;;31.79;31.22;100080.85;1688938;84;21167;-57
2022/08/13 11:08:27;;;;;;;6.42;3.85;;;;;;;31.81;30.86;100079.16;1688609;83;20963;-57
2022/08/13 11:10:55;;;;;;;7.73;4.77;;;;;;;31.81;30.81;100077.81;1688167;84;21023;-62
2022/08/13 11:13:23;;;;;;;8.55;4.50;;;;;;;31.77;30.75;100070.16;1688080;84;21491;-62
2022/08/13 11:15:51;;;;;;;7.15;4.20;;;;;;;31.74;31.42;100075.64;1688990;84;21563;-56
2022/08/13 11:18:19;;;;;;;8.98;4.00;;;;;;;31.65;30.97;100068.98;1689058;84;21272;-56
2022/08/13 11:23:33;;;;;;;9.55;4.53;;;;;;;31.61;31.70;100078.05;1689247;84;21383;-57
2022/08/13 11:26:01;;;;;;;7.35;4.15;;;;;;;31.53;31.47;100074.31;1688985;84;21674;-57
2022/08/13 11:28:28;;;;;;;7.12;3.83;;;;;;;31.40;31.32;100070.73;1689060;84;21032;-57
2022/08/13 11:30:56;;;;;;;9.38;3.85;;;;;;;31.28;30.94;100068.50;1688286;84;21335;-65
2022/08/13 11:33:24;;;;;;;6.75;4.20;;;;;;;31.16;31.60;100069.20;1688590;84;21349;-57
2022/08/13 11:35:52;;;;;;;7.20;3.90;;;;;;;31.08;32.10;100073.52;1689311;84;20978;-56
2022/08/13 11:38:21;;;;;;;5.67;3.52;;;;;;;31.00;31.75;100068.41;1689138;84;21517;-57
2022/08/13 11:40:53;;;;;;;6.70;4.40;;;;;;;30.92;32.05;100064.42;1689011;84;21018;-64
2022/08/13 11:43:24;;;;;;;8.25;3.60;;;;;;;30.85;33.22;100070.30;1689426;84;21173;-56
2022/08/13 11:45:51;;;;;;;5.90;4.00;;;;;;;30.74;33.25;100061.02;1687877;84;20971;-56
2022/08/13 11:48:19;;;;;;;5.72;4.10;;;;;;;30.65;33.33;100055.64;1689097;84;20987;-56